済州 の空港の天気 - METARとTAF

済州国際空港 ( RKPC / CJU ) - 韓国 済州
飛行場実況気象(Metar)
観測時間02/06 04:00 KST (02/05 19:00 UTC)
風向・風速南南東 3m/s
視程10km以上
天気現象
なし
気温5℃
湿度61%
気圧1022hPa
METARRKPC 051900Z 16005KT CAVOK 05/M02 Q1022 NOSIG
過去の天気等 Google飛行場航空写真 Wunderground天気予報

過去48時間のMETAR

飛行場予報(TAF)
発表時間: 2/06 02:00 KST (2/05 17:00 UTC)
予報対象時間: 6日3時 KST ~ 7日9時 KST
風向・風速南 3m/s
視程10km以上
なし
6日7時 KST ~ 6日8時 KST に徐々に
風向・風速東 4m/s
6日11時 KST ~ 6日12時 KST に徐々に
風向・風速北北東 4m/s
視程10km以上
全天の8割程度の雲 雲底高度 910m
全天を覆う雲 雲底高度 3050m
6日15時 KST ~ 6日17時 KST に一時的に
天気現象弱い雨
6日18時 KST ~ 6日19時 KST に徐々に
風向・風速東 4m/s
視程6000m
天気現象弱い雨
7日1時 KST ~ 7日2時 KST に徐々に
風向・風速北北東 4m/s
TAF RKPC 051700Z 0518/0624 17005KT CAVOK TN04/0520Z TX11/0604Z TN07/0620Z
BECMG 0522/0523 09007KT
BECMG 0602/0603 03008KT 9999 BKN030 OVC100
TEMPO 0606/0608 -RA
BECMG 0609/0610 09008KT 6000 -RA
BECMG 0616/0617 03008KT